createdAt,value
2018-01-12T00:00:10.062Z,19.90
2018-01-12T00:03:19.602Z,18.50
2018-01-12T00:06:28.352Z,19.13
2018-01-12T00:09:42.772Z,16.63
2018-01-12T00:12:57.593Z,18.30
2018-01-12T00:16:07.743Z,18.63
2018-01-12T00:19:18.686Z,18.20
2018-01-12T00:22:31.914Z,14.33
2018-01-12T00:25:43.016Z,17.43
2018-01-12T00:28:52.985Z,16.50
2018-01-12T00:32:03.214Z,15.53
2018-01-12T00:35:11.401Z,17.90
2018-01-12T00:38:20.649Z,16.63
2018-01-12T00:41:32.638Z,16.40
2018-01-12T00:44:43.219Z,15.87
2018-01-12T00:47:52.084Z,15.90
2018-01-12T00:51:02.152Z,18.93
2018-01-12T00:54:14.768Z,16.63
2018-01-12T00:57:27.046Z,16.00
2018-01-12T01:00:35.667Z,17.37
2018-01-12T01:03:44.359Z,18.90
2018-01-12T01:06:57.110Z,14.43
2018-01-12T01:10:05.219Z,18.50
2018-01-12T01:13:16.515Z,14.57
2018-01-12T01:16:30.730Z,13.73
2018-01-12T01:19:39.954Z,15.17
2018-01-12T01:22:54.748Z,15.80
2018-01-12T01:26:07.315Z,16.70
2018-01-12T01:29:21.126Z,14.40
2018-01-12T01:32:32.671Z,13.33
2018-01-12T01:35:47.630Z,16.17
2018-01-12T01:38:56.354Z,14.93
2018-01-12T01:42:05.761Z,13.83
2018-01-12T01:45:13.490Z,16.43
2018-01-12T01:48:37.825Z,18.53
2018-01-12T01:51:52.819Z,16.90
2018-01-12T01:55:02.662Z,14.87
2018-01-12T01:58:12.050Z,15.10
2018-01-12T02:01:26.668Z,14.20
2018-01-12T02:04:38.841Z,16.33
2018-01-12T02:07:51.050Z,20.33
2018-01-12T02:11:02.352Z,22.40
2018-01-12T02:14:13.342Z,17.47
2018-01-12T02:17:29.446Z,18.87
2018-01-12T02:20:42.158Z,21.20
2018-01-12T02:23:52.324Z,24.03
2018-01-12T02:27:04.770Z,25.33
2018-01-12T02:30:17.638Z,31.67
2018-01-12T02:33:28.657Z,25.20
2018-01-12T02:36:37.902Z,29.10
2018-01-12T02:39:48.878Z,26.57
2018-01-12T02:42:58.890Z,32.17
2018-01-12T02:49:24.004Z,26.77
2018-01-12T02:52:52.815Z,35.93
2018-01-12T02:56:10.449Z,36.60
2018-01-12T02:59:21.028Z,34.47
2018-01-12T03:02:32.883Z,37.93
2018-01-12T03:05:45.643Z,38.50
2018-01-12T03:08:57.516Z,36.20
2018-01-12T03:12:08.078Z,36.57
2018-01-12T03:15:19.932Z,39.57
2018-01-12T03:18:31.110Z,43.97
2018-01-12T03:21:42.583Z,48.13
2018-01-12T03:24:53.393Z,49.30
2018-01-12T03:28:07.369Z,41.03
2018-01-12T03:31:21.013Z,46.43
2018-01-12T03:34:31.430Z,45.73
2018-01-12T03:37:41.222Z,52.30
2018-01-12T03:40:53.276Z,55.50
2018-01-12T03:44:05.748Z,61.30
2018-01-12T03:47:15.293Z,56.03
2018-01-12T03:50:28.381Z,56.80
2018-01-12T03:53:41.183Z,58.77
2018-01-12T03:56:56.856Z,59.10
2018-01-12T04:00:07.232Z,62.23
2018-01-12T04:03:17.432Z,57.63
2018-01-12T04:06:29.690Z,45.73
2018-01-12T04:09:38.372Z,58.03
2018-01-12T04:12:49.879Z,49.50
2018-01-12T04:16:00.296Z,51.43
2018-01-12T04:19:10.874Z,50.93
2018-01-12T04:22:21.238Z,54.53
2018-01-12T04:25:33.081Z,52.67
2018-01-12T04:28:42.676Z,59.80
2018-01-12T04:31:55.214Z,50.87
2018-01-12T04:35:08.496Z,49.17
2018-01-12T04:38:19.232Z,54.67
2018-01-12T04:41:29.237Z,48.67
2018-01-12T04:44:47.200Z,49.73
2018-01-12T04:47:57.572Z,46.17
2018-01-12T04:51:10.093Z,48.07
2018-01-12T04:54:20.746Z,42.33
2018-01-12T04:57:34.928Z,44.63
2018-01-12T05:00:46.428Z,51.70
2018-01-12T05:03:55.884Z,44.70
2018-01-12T05:07:03.776Z,45.10
2018-01-12T05:10:14.806Z,42.67
2018-01-12T05:13:32.829Z,36.57
2018-01-12T05:16:44.031Z,38.93
2018-01-12T05:19:57.077Z,35.80
2018-01-12T05:23:09.105Z,36.70
2018-01-12T05:26:20.270Z,38.63
2018-01-12T05:29:30.349Z,45.43
2018-01-12T05:32:39.124Z,41.50
2018-01-12T05:35:49.689Z,39.93
2018-01-12T05:38:58.850Z,42.17
2018-01-12T05:42:09.538Z,40.53
2018-01-12T05:45:21.608Z,39.33
2018-01-12T05:48:31.926Z,35.63
2018-01-12T05:51:42.192Z,38.30
2018-01-12T05:54:53.841Z,36.80
2018-01-12T05:58:05.280Z,41.53
2018-01-12T06:01:25.883Z,46.60
2018-01-12T06:04:45.837Z,42.23
2018-01-12T06:08:02.724Z,45.07
2018-01-12T06:11:14.469Z,48.67
2018-01-12T06:14:25.676Z,46.17
2018-01-12T06:17:37.175Z,43.20
2018-01-12T06:20:50.628Z,44.63
2018-01-12T06:24:01.047Z,54.63
2018-01-12T06:27:13.420Z,60.97
2018-01-12T06:30:22.544Z,48.83
2018-01-12T06:33:31.700Z,49.00
2018-01-12T06:36:39.762Z,47.87
2018-01-12T06:39:51.532Z,59.67
2018-01-12T06:43:01.772Z,48.53
2018-01-12T06:46:12.561Z,56.43
2018-01-12T06:49:23.186Z,44.07
2018-01-12T06:52:34.684Z,50.70
2018-01-12T06:55:46.826Z,57.23
2018-01-12T06:58:57.187Z,53.10
2018-01-12T07:02:08.195Z,51.83
2018-01-12T07:05:21.916Z,43.00
2018-01-12T07:08:31.901Z,41.83
2018-01-12T07:11:41.432Z,49.17
2018-01-12T07:14:54.500Z,54.20
2018-01-12T07:18:05.868Z,52.27
2018-01-12T07:21:26.566Z,50.73
2018-01-12T07:24:39.765Z,50.90
2018-01-12T07:27:54.021Z,53.50
2018-01-12T07:31:04.161Z,42.30
2018-01-12T07:34:15.461Z,46.80
2018-01-12T07:37:27.530Z,51.97
2018-01-12T07:40:36.707Z,52.63
2018-01-12T07:43:47.791Z,58.60
2018-01-12T07:46:58.487Z,63.10
2018-01-12T07:50:13.953Z,53.10
2018-01-12T07:53:25.879Z,50.17
2018-01-12T07:56:38.588Z,44.77
2018-01-12T07:59:52.087Z,50.97
2018-01-12T08:03:09.850Z,59.17
2018-01-12T08:06:17.475Z,60.60
2018-01-12T08:09:26.573Z,49.30
2018-01-12T08:12:37.025Z,49.97
2018-01-12T08:15:47.095Z,47.43
2018-01-12T08:18:56.748Z,49.90
2018-01-12T08:22:06.395Z,51.10
2018-01-12T08:25:31.021Z,55.93
2018-01-12T08:28:42.301Z,47.27
2018-01-12T08:31:54.412Z,55.37
2018-01-12T08:35:03.472Z,58.90
2018-01-12T08:38:13.944Z,55.37
2018-01-12T08:41:24.122Z,60.33
2018-01-12T08:44:33.025Z,63.50
2018-01-12T08:47:43.916Z,53.10
2018-01-12T08:50:54.384Z,53.90
2018-01-12T08:54:05.553Z,54.90
2018-01-12T08:57:16.929Z,61.97
2018-01-12T09:00:35.892Z,58.87
2018-01-12T09:03:48.357Z,52.47
2018-01-12T09:06:58.457Z,61.80
2018-01-12T09:10:10.252Z,55.77
2018-01-12T09:13:31.756Z,62.87
2018-01-12T09:16:40.933Z,65.40
2018-01-12T09:19:54.389Z,50.70
2018-01-12T09:26:36.576Z,53.73
2018-01-12T09:29:46.784Z,51.30
2018-01-12T09:33:04.312Z,58.50
2018-01-12T09:36:13.922Z,57.33
2018-01-12T09:39:32.780Z,52.60
2018-01-12T09:42:45.431Z,61.13
2018-01-12T09:45:56.890Z,57.77
2018-01-12T09:49:10.912Z,65.37
2018-01-12T09:52:25.219Z,70.67
2018-01-12T09:55:36.462Z,65.90
2018-01-12T09:58:52.308Z,65.47
2018-01-12T10:02:01.710Z,64.00
2018-01-12T10:05:15.176Z,70.83
2018-01-12T10:08:32.259Z,64.50
2018-01-12T10:11:43.731Z,68.10
2018-01-12T10:14:55.802Z,54.83
2018-01-12T10:18:12.169Z,66.37
2018-01-12T10:21:36.349Z,60.50
2018-01-12T10:24:46.834Z,67.80
2018-01-12T10:27:57.627Z,62.73
2018-01-12T10:31:05.458Z,67.23
2018-01-12T10:34:17.730Z,69.70
2018-01-12T10:37:29.242Z,68.60
2018-01-12T10:40:48.733Z,72.33
2018-01-12T10:44:03.632Z,70.07
2018-01-12T10:50:57.908Z,64.00
2018-01-12T10:54:12.221Z,77.30
2018-01-12T10:57:22.596Z,62.50
2018-01-12T11:00:35.685Z,76.70
2018-01-12T11:03:46.459Z,58.20
2018-01-12T11:06:57.264Z,79.43
2018-01-12T11:10:12.190Z,79.33
2018-01-12T11:13:24.918Z,60.23
2018-01-12T11:16:39.388Z,62.23
2018-01-12T11:19:52.572Z,71.47
2018-01-12T11:23:03.226Z,66.07
2018-01-12T11:26:15.850Z,75.70
2018-01-12T11:29:26.732Z,73.20
2018-01-12T11:32:40.166Z,59.80
2018-01-12T11:35:51.048Z,65.47
2018-01-12T11:39:03.039Z,69.60
2018-01-12T11:42:13.957Z,71.70
2018-01-12T11:45:23.419Z,58.13
2018-01-12T11:48:33.262Z,70.83
2018-01-12T11:51:47.408Z,59.60
2018-01-12T11:54:57.606Z,58.80
2018-01-12T11:58:09.241Z,61.73
2018-01-12T12:01:19.961Z,60.60
2018-01-12T12:04:32.087Z,63.43
2018-01-12T12:07:46.372Z,69.63
2018-01-12T12:10:58.349Z,60.10
2018-01-12T12:14:08.369Z,51.33
2018-01-12T12:17:20.646Z,68.30
2018-01-12T12:20:34.817Z,48.63
2018-01-12T12:23:46.672Z,56.80
2018-01-12T12:26:57.420Z,55.90
2018-01-12T12:30:07.217Z,60.30
2018-01-12T12:33:19.650Z,47.83
2018-01-12T12:39:49.919Z,49.00
2018-01-12T12:43:00.295Z,56.10
2018-01-12T12:46:10.557Z,49.00
2018-01-12T12:49:21.562Z,56.67
2018-01-12T12:52:31.316Z,49.23
2018-01-12T12:55:45.326Z,56.20
2018-01-12T12:58:56.468Z,49.00
2018-01-12T13:02:07.294Z,57.23
2018-01-12T13:05:17.170Z,48.50
2018-01-12T13:08:28.288Z,41.27
2018-01-12T13:11:44.522Z,46.60
2018-01-12T13:14:55.541Z,39.27
2018-01-12T13:18:04.651Z,40.40
2018-01-12T13:21:15.688Z,48.10
2018-01-12T13:24:27.457Z,45.60
2018-01-12T13:27:36.310Z,45.67
2018-01-12T13:30:49.013Z,40.63
2018-01-12T13:33:59.208Z,40.60
2018-01-12T13:37:09.885Z,49.57
2018-01-12T13:40:32.075Z,44.17
2018-01-12T13:43:44.424Z,39.50
2018-01-12T13:46:58.857Z,42.60
2018-01-12T13:50:09.115Z,43.23
2018-01-12T13:53:19.109Z,46.63
2018-01-12T13:56:28.213Z,43.23
2018-01-12T13:59:39.249Z,47.57
2018-01-12T14:02:48.985Z,40.47
2018-01-12T14:05:58.920Z,44.63
2018-01-12T14:09:10.692Z,35.40
2018-01-12T14:12:20.390Z,42.07
2018-01-12T14:15:30.469Z,41.30
2018-01-12T14:18:41.509Z,42.90
2018-01-12T14:21:53.495Z,39.80
2018-01-12T14:25:04.941Z,39.90
2018-01-12T14:28:17.533Z,39.73
2018-01-12T14:31:29.138Z,34.97
2018-01-12T14:34:39.469Z,37.33
2018-01-12T14:37:50.952Z,30.47
2018-01-12T14:41:01.833Z,32.10
2018-01-12T14:44:15.092Z,34.20
2018-01-12T14:47:25.268Z,42.47
2018-01-12T14:50:35.277Z,35.10
2018-01-12T14:53:46.650Z,30.47
2018-01-12T14:56:56.640Z,31.43
2018-01-12T15:00:08.466Z,27.80
2018-01-12T15:03:24.852Z,29.70
2018-01-12T15:06:36.016Z,29.77
2018-01-12T15:09:47.778Z,37.17
2018-01-12T15:12:59.238Z,32.13
2018-01-12T15:16:09.685Z,28.23
2018-01-12T15:19:24.162Z,27.73
2018-01-12T15:22:37.417Z,29.50
2018-01-12T15:25:49.778Z,26.30
2018-01-12T15:29:01.045Z,30.13
2018-01-12T15:32:15.536Z,28.60
2018-01-12T15:35:27.320Z,27.93
2018-01-12T15:38:45.498Z,23.67
2018-01-12T15:41:59.912Z,27.10
2018-01-12T15:45:11.582Z,24.43
2018-01-12T15:48:20.904Z,24.80
2018-01-12T15:51:44.788Z,27.93
2018-01-12T15:55:05.807Z,25.17
2018-01-12T15:58:28.739Z,24.90
2018-01-12T16:01:58.282Z,31.07
2018-01-12T16:05:12.747Z,23.00
2018-01-12T16:08:30.229Z,24.40
2018-01-12T16:11:51.174Z,24.97
2018-01-12T16:15:11.720Z,22.40
2018-01-12T16:18:34.736Z,25.63
2018-01-12T16:22:00.224Z,25.30
2018-01-12T16:25:18.829Z,21.33
2018-01-12T16:28:47.879Z,24.70
2018-01-12T16:32:07.626Z,19.03
2018-01-12T16:35:25.611Z,19.70
2018-01-12T16:38:44.735Z,29.13
2018-01-12T16:45:39.840Z,27.10
2018-01-12T16:49:20.000Z,20.70
2018-01-12T16:56:08.500Z,24.80
2018-01-12T16:59:47.194Z,21.23
2018-01-12T17:03:03.527Z,22.90
2018-01-12T17:06:28.849Z,21.83
2018-01-12T17:09:52.627Z,23.20
2018-01-12T17:13:21.863Z,19.73
2018-01-12T17:16:42.505Z,21.33
2018-01-12T17:30:41.781Z,24.00
2018-01-12T17:34:09.915Z,26.30
2018-01-12T17:37:31.349Z,19.30
2018-01-12T17:40:50.273Z,19.60
2018-01-12T17:44:17.960Z,23.27
2018-01-12T17:47:45.146Z,24.27
2018-01-12T17:51:10.095Z,20.20
2018-01-12T17:54:28.471Z,27.10
2018-01-12T17:57:50.669Z,21.70
2018-01-12T18:01:24.738Z,21.63
2018-01-12T18:04:45.095Z,28.03
2018-01-12T18:08:16.579Z,23.20
2018-01-12T18:18:54.183Z,25.20
2018-01-12T18:22:16.804Z,23.77
2018-01-12T18:25:26.773Z,24.87
2018-01-12T18:28:45.257Z,27.20
2018-01-12T18:32:06.846Z,25.40
2018-01-12T18:35:41.013Z,20.83
2018-01-12T18:39:05.635Z,29.23
2018-01-12T18:42:26.606Z,26.17
2018-01-12T18:46:00.499Z,27.20
2018-01-12T18:49:23.067Z,26.50
2018-01-12T18:52:39.395Z,23.40
2018-01-12T18:56:11.332Z,25.60
2018-01-12T18:59:41.748Z,30.27
2018-01-12T19:03:05.469Z,24.27
2018-01-12T19:06:45.791Z,28.43
2018-01-12T19:10:09.087Z,28.30
2018-01-12T19:13:39.100Z,24.83
2018-01-12T19:17:13.913Z,31.20
2018-01-12T19:24:07.411Z,28.77
2018-01-12T19:34:49.647Z,28.83
2018-01-12T19:38:21.017Z,29.73
2018-01-12T19:45:05.125Z,29.13
2018-01-12T19:48:18.345Z,26.93
2018-01-12T19:51:46.040Z,28.57
2018-01-12T19:55:13.671Z,26.33
2018-01-12T19:58:31.832Z,24.57
2018-01-12T20:02:00.760Z,29.53
2018-01-12T20:05:21.594Z,27.77
2018-01-12T20:08:50.910Z,26.10
2018-01-12T20:15:58.675Z,28.20
2018-01-12T20:19:23.431Z,28.90
2018-01-12T20:22:40.474Z,35.37
2018-01-12T20:25:52.785Z,33.77
2018-01-12T20:29:04.972Z,25.77
2018-01-12T20:32:17.413Z,28.57
2018-01-12T20:35:26.425Z,30.77
2018-01-12T20:38:48.453Z,28.70
2018-01-12T20:45:40.724Z,26.80
2018-01-12T20:49:26.980Z,31.40
2018-01-12T20:52:47.524Z,26.23
2018-01-12T20:55:58.469Z,29.03
2018-01-12T20:59:10.810Z,26.50
2018-01-12T21:02:24.513Z,25.10
2018-01-12T21:05:34.467Z,23.80
2018-01-12T21:08:43.388Z,25.00
2018-01-12T21:12:04.512Z,24.23
2018-01-12T21:15:14.258Z,23.83
2018-01-12T21:18:26.629Z,24.83
2018-01-12T21:21:36.661Z,36.40
2018-01-12T21:24:48.027Z,26.17
2018-01-12T21:28:15.204Z,28.10
2018-01-12T21:31:23.502Z,29.67
2018-01-12T21:34:37.234Z,25.43
2018-01-12T21:37:46.837Z,26.70
2018-01-12T21:40:59.937Z,35.87
2018-01-12T21:44:09.622Z,29.77
2018-01-12T21:47:21.789Z,25.47
2018-01-12T21:50:37.295Z,27.47
2018-01-12T21:53:49.284Z,22.93
2018-01-12T21:56:59.941Z,27.90
2018-01-12T22:00:10.872Z,27.40
2018-01-12T22:03:20.381Z,24.50
2018-01-12T22:06:30.290Z,27.33
2018-01-12T22:09:44.399Z,25.70
2018-01-12T22:13:09.578Z,29.37
2018-01-12T22:16:19.178Z,23.83
2018-01-12T22:19:34.672Z,28.00
2018-01-12T22:22:46.703Z,27.07
2018-01-12T22:26:00.573Z,22.53
2018-01-12T22:29:07.437Z,25.40
2018-01-12T22:32:17.314Z,22.90
2018-01-12T22:35:27.077Z,23.73
2018-01-12T22:38:39.768Z,30.37
2018-01-12T22:41:51.368Z,20.60
2018-01-12T22:45:05.011Z,26.80
2018-01-12T22:48:12.435Z,27.07
2018-01-12T22:51:20.252Z,34.77
2018-01-12T22:54:29.068Z,27.50
2018-01-12T22:57:41.650Z,21.20
2018-01-12T23:04:17.673Z,27.67
2018-01-12T23:07:28.376Z,28.73
2018-01-12T23:10:38.188Z,22.97
2018-01-12T23:13:48.433Z,23.60
2018-01-12T23:17:01.277Z,28.90
2018-01-12T23:20:11.557Z,22.80
2018-01-12T23:23:24.471Z,25.97
2018-01-12T23:29:55.750Z,29.30
2018-01-12T23:33:03.467Z,24.53
2018-01-12T23:36:21.504Z,31.00
2018-01-12T23:43:01.038Z,24.83
2018-01-12T23:46:09.851Z,22.70
2018-01-12T23:49:19.451Z,23.73
2018-01-12T23:52:29.710Z,20.97
2018-01-12T23:55:43.456Z,26.27
2018-01-12T23:58:57.331Z,23.47
